Saint Petersburg, FL

3:27 AM EDT on March 24, 2017 (GMT -0400)
Pinellas St. Petersburg Municipal Bldg. WeatherSTEM | | Change Station

Elev 0 ft 27.77 °N, 82.64 °W | Updated 1 minute ago

Partly Cloudy
Partly Cloudy
65.5 °F
Feels Like 65.5 °F
N
4.0
Wind Variable Wind from ENE

Today
High -- | Low -- °F
--% Chance of Precip.
Yesterday
High -- | Low -- °F
Precip. -- in
Pressure 30.28 in
Visibility 10.0 miles
Clouds Few 3200 ft
Dew Point 61 °F
Humidity 86%
Rainfall 0.00 in
Snow Depth Not available.
7:29 AM 7:44 PM
Waning Crescent, 17% visible
METAR KSPG 240653Z AUTO 10015KT 10SM FEW032 19/17 A3028 RMK AO2 SLP254 T01890167
Pressure 30.28 in
Visibility 10.0 miles
Clouds Few 3200 ft
Dew Point 61 °F
Humidity 86%
Rainfall 0.00 in
Snow Depth Not available.
7:29 AM 7:44 PM
Waning Crescent, 17% visible
METAR KSPG 240653Z AUTO 10015KT 10SM FEW032 19/17 A3028 RMK AO2 SLP254 T01890167

Get Severe Weather Alerts

Thanks for signing up!

Be on the lookout for a verification email in your inbox.

You'll start receiving the daily forecast at 8 AM.

×

10-Day Weather Forecast

Almanac

Astronomy

Mar. 24, 2017 Rise Set
Actual Time
Civil Twilight
Nautical Twilight
Astronomical Twilight
Moon
Length of Visible Light
Length of Day
Tomorrow will be .
, % of the Moon is Illuminated

Today's Extremes

State Highs State Lows

Community

WunderPhotos

Upload Photos

1,962,540 photos uploaded!

WunderBlog® & News

Nearby

Air Quality

  Air Quality AQ Index Pollutant
Not available.

Snow Depth

Station Depth Elevation

Earthquake Activity

City Distance Mag. Time & Date
Minimum magnitude displayed is 2.5.

Earthquake Activity

City Distance Mag. Time & Date
Minimum magnitude displayed is 2.5.

Coastal Water Temperatures

Place Temperature

Stations

Nearby Weather Stations

Station Location Temp. Windchill Dew Point Humidity Wind Precip. Elev Updated Type
                   

Watches & Warnings

There are currently no watches in effect.